sensor_id;sensor_type;location;lat;lon;timestamp;temperature;humidity
46752;DHT22;32497;48.936;9.270;2023-01-30T00:03:32;-3273.60;89.70
46752;DHT22;32497;48.936;9.270;2023-01-30T00:08:35;-3273.70;90.00
46752;DHT22;32497;48.936;9.270;2023-01-30T00:13:36;-3273.70;89.50
46752;DHT22;32497;48.936;9.270;2023-01-30T00:18:39;-3273.60;88.50
46752;DHT22;32497;48.936;9.270;2023-01-30T00:23:41;-3273.60;89.50
46752;DHT22;32497;48.936;9.270;2023-01-30T00:28:42;-3273.50;89.30
46752;DHT22;32497;48.936;9.270;2023-01-30T00:33:44;-3273.40;88.80
46752;DHT22;32497;48.936;9.270;2023-01-30T00:38:46;-3273.40;88.00
46752;DHT22;32497;48.936;9.270;2023-01-30T00:43:47;-3273.30;88.90
46752;DHT22;32497;48.936;9.270;2023-01-30T00:48:48;-3273.50;90.00
46752;DHT22;32497;48.936;9.270;2023-01-30T00:53:51;-3273.50;89.20
46752;DHT22;32497;48.936;9.270;2023-01-30T00:58:52;-3273.50;88.80
46752;DHT22;32497;48.936;9.270;2023-01-30T01:03:53;-3273.70;89.80
46752;DHT22;32497;48.936;9.270;2023-01-30T01:08:56;-3274.10;90.10
46752;DHT22;32497;48.936;9.270;2023-01-30T01:13:58;-3274.50;89.80
46752;DHT22;32497;48.936;9.270;2023-01-30T01:19:00;-3274.80;89.00
46752;DHT22;32497;48.936;9.270;2023-01-30T01:24:03;-3275.00;88.60
46752;DHT22;32497;48.936;9.270;2023-01-30T01:29:04;-3275.00;88.30
46752;DHT22;32497;48.936;9.270;2023-01-30T01:34:05;-3275.00;87.90
46752;DHT22;32497;48.936;9.270;2023-01-30T01:39:08;-3275.00;88.00
46752;DHT22;32497;48.936;9.270;2023-01-30T01:44:10;-3275.00;87.80
46752;DHT22;32497;48.936;9.270;2023-01-30T01:49:15;-3275.00;87.70
46752;DHT22;32497;48.936;9.270;2023-01-30T01:54:22;-3275.00;87.60
46752;DHT22;32497;48.936;9.270;2023-01-30T01:59:27;-3275.00;87.40
46752;DHT22;32497;48.936;9.270;2023-01-30T02:04:31;-3275.10;88.10
46752;DHT22;32497;48.936;9.270;2023-01-30T02:09:34;-3275.20;87.10
46752;DHT22;32497;48.936;9.270;2023-01-30T02:14:36;-3275.10;86.90
46752;DHT22;32497;48.936;9.270;2023-01-30T02:19:45;-3274.90;86.80
46752;DHT22;32497;48.936;9.270;2023-01-30T02:25:18;-3274.50;87.30
46752;DHT22;32497;48.936;9.270;2023-01-30T02:30:48;-3274.60;88.00
46752;DHT22;32497;48.936;9.270;2023-01-30T02:36:03;-3274.50;88.20
46752;DHT22;32497;48.936;9.270;2023-01-30T02:41:17;-3274.50;88.50
46752;DHT22;32497;48.936;9.270;2023-01-30T02:46:27;-3274.50;88.60
46752;DHT22;32497;48.936;9.270;2023-01-30T02:51:34;-3274.50;88.50
46752;DHT22;32497;48.936;9.270;2023-01-30T02:56:44;-3274.70;88.50
46752;DHT22;32497;48.936;9.270;2023-01-30T03:02:19;-3274.90;88.30
46752;DHT22;32497;48.936;9.270;2023-01-30T03:07:33;-3275.00;88.00
46752;DHT22;32497;48.936;9.270;2023-01-30T03:12:47;-3275.10;87.70
46752;DHT22;32497;48.936;9.270;2023-01-30T03:17:50;-3275.00;87.30
46752;DHT22;32497;48.936;9.270;2023-01-30T03:22:53;-3274.90;87.60
46752;DHT22;32497;48.936;9.270;2023-01-30T03:27:54;-3274.90;87.60
46752;DHT22;32497;48.936;9.270;2023-01-30T03:32:58;-3275.00;87.80
46752;DHT22;32497;48.936;9.270;2023-01-30T03:37:59;-3275.10;87.80
46752;DHT22;32497;48.936;9.270;2023-01-30T03:43:00;-3275.00;87.40
46752;DHT22;32497;48.936;9.270;2023-01-30T03:48:04;-3275.20;86.90
46752;DHT22;32497;48.936;9.270;2023-01-30T03:53:05;-3275.30;86.70
46752;DHT22;32497;48.936;9.270;2023-01-30T03:58:06;-3275.40;86.70
46752;DHT22;32497;48.936;9.270;2023-01-30T04:03:09;-3275.50;87.10
46752;DHT22;32497;48.936;9.270;2023-01-30T04:08:11;-3275.60;86.70
46752;DHT22;32497;48.936;9.270;2023-01-30T04:13:12;-3275.70;86.50
46752;DHT22;32497;48.936;9.270;2023-01-30T04:18:15;-3275.70;85.70
46752;DHT22;32497;48.936;9.270;2023-01-30T04:23:23;-3275.70;85.50
46752;DHT22;32497;48.936;9.270;2023-01-30T04:28:24;-3275.70;85.10
46752;DHT22;32497;48.936;9.270;2023-01-30T04:33:28;-3275.80;85.10
46752;DHT22;32497;48.936;9.270;2023-01-30T04:38:30;-3275.90;84.70
46752;DHT22;32497;48.936;9.270;2023-01-30T04:43:31;-3276.00;84.70
46752;DHT22;32497;48.936;9.270;2023-01-30T04:49:00;-3276.00;84.60
46752;DHT22;32497;48.936;9.270;2023-01-30T04:54:01;-3276.20;85.00
46752;DHT22;32497;48.936;9.270;2023-01-30T04:59:04;-3276.10;84.00
46752;DHT22;32497;48.936;9.270;2023-01-30T05:04:12;-3276.40;85.00
46752;DHT22;32497;48.936;9.270;2023-01-30T05:09:14;-3276.50;86.10
46752;DHT22;32497;48.936;9.270;2023-01-30T05:14:15;-3276.50;84.80
46752;DHT22;32497;48.936;9.270;2023-01-30T05:19:17;-3276.60;84.90
46752;DHT22;32497;48.936;9.270;2023-01-30T05:24:19;-3276.60;84.20
46752;DHT22;32497;48.936;9.270;2023-01-30T05:29:20;-3276.60;84.10
46752;DHT22;32497;48.936;9.270;2023-01-30T05:34:22;-3276.60;83.30
46752;DHT22;32497;48.936;9.270;2023-01-30T05:39:23;-3276.60;83.00
46752;DHT22;32497;48.936;9.270;2023-01-30T05:44:24;-3276.70;83.40
46752;DHT22;32497;48.936;9.270;2023-01-30T05:49:27;-3276.70;83.60
46752;DHT22;32497;48.936;9.270;2023-01-30T05:54:28;-3276.70;81.20
46752;DHT22;32497;48.936;9.270;2023-01-30T05:59:29;-3276.70;82.30
46752;DHT22;32497;48.936;9.270;2023-01-30T06:04:31;0.00;81.80
46752;DHT22;32497;48.936;9.270;2023-01-30T06:09:32;0.00;82.20
46752;DHT22;32497;48.936;9.270;2023-01-30T06:14:33;0.00;82.00
46752;DHT22;32497;48.936;9.270;2023-01-30T06:19:36;0.00;82.10
46752;DHT22;32497;48.936;9.270;2023-01-30T06:24:37;0.00;82.30
46752;DHT22;32497;48.936;9.270;2023-01-30T06:29:38;0.00;82.50
46752;DHT22;32497;48.936;9.270;2023-01-30T06:34:40;0.00;82.30
46752;DHT22;32497;48.936;9.270;2023-01-30T06:39:41;0.00;81.60
46752;DHT22;32497;48.936;9.270;2023-01-30T06:44:42;0.10;80.90
46752;DHT22;32497;48.936;9.270;2023-01-30T06:49:45;0.10;80.20
46752;DHT22;32497;48.936;9.270;2023-01-30T06:54:46;0.10;80.50
46752;DHT22;32497;48.936;9.270;2023-01-30T06:59:47;0.10;80.30
46752;DHT22;32497;48.936;9.270;2023-01-30T07:04:49;0.20;80.10
46752;DHT22;32497;48.936;9.270;2023-01-30T07:09:50;0.30;80.00
46752;DHT22;32497;48.936;9.270;2023-01-30T07:14:52;0.40;79.90
46752;DHT22;32497;48.936;9.270;2023-01-30T07:19:55;0.40;80.00
46752;DHT22;32497;48.936;9.270;2023-01-30T07:24:56;0.40;79.50
46752;DHT22;32497;48.936;9.270;2023-01-30T07:29:57;0.50;79.50
46752;DHT22;32497;48.936;9.270;2023-01-30T07:34:59;0.60;78.50
46752;DHT22;32497;48.936;9.270;2023-01-30T07:40:00;0.60;78.20
46752;DHT22;32497;48.936;9.270;2023-01-30T07:45:01;0.70;78.60
46752;DHT22;32497;48.936;9.270;2023-01-30T07:50:05;0.70;79.20
46752;DHT22;32497;48.936;9.270;2023-01-30T07:55:07;0.70;79.60
46752;DHT22;32497;48.936;9.270;2023-01-30T08:00:09;0.70;80.00
46752;DHT22;32497;48.936;9.270;2023-01-30T08:05:11;0.60;80.00
46752;DHT22;32497;48.936;9.270;2023-01-30T08:10:13;0.70;80.20
46752;DHT22;32497;48.936;9.270;2023-01-30T08:15:14;0.70;81.50
46752;DHT22;32497;48.936;9.270;2023-01-30T08:20:17;0.70;81.20
46752;DHT22;32497;48.936;9.270;2023-01-30T08:25:18;0.70;82.30
46752;DHT22;32497;48.936;9.270;2023-01-30T08:30:20;0.80;82.10
46752;DHT22;32497;48.936;9.270;2023-01-30T08:35:23;0.90;82.40
46752;DHT22;32497;48.936;9.270;2023-01-30T08:40:24;1.00;81.90
46752;DHT22;32497;48.936;9.270;2023-01-30T08:45:25;1.10;82.10
46752;DHT22;32497;48.936;9.270;2023-01-30T08:50:28;1.10;82.20
46752;DHT22;32497;48.936;9.270;2023-01-30T08:55:29;1.30;82.20
46752;DHT22;32497;48.936;9.270;2023-01-30T09:00:30;1.50;81.90
46752;DHT22;32497;48.936;9.270;2023-01-30T09:05:33;1.60;81.50
46752;DHT22;32497;48.936;9.270;2023-01-30T09:10:34;1.50;82.30
46752;DHT22;32497;48.936;9.270;2023-01-30T09:15:36;1.60;82.40
46752;DHT22;32497;48.936;9.270;2023-01-30T09:20:38;1.70;82.20
46752;DHT22;32497;48.936;9.270;2023-01-30T09:25:39;1.80;81.70
46752;DHT22;32497;48.936;9.270;2023-01-30T09:30:40;2.00;81.00
46752;DHT22;32497;48.936;9.270;2023-01-30T09:35:46;2.00;80.70
46752;DHT22;32497;48.936;9.270;2023-01-30T09:40:54;2.00;80.50
46752;DHT22;32497;48.936;9.270;2023-01-30T09:46:07;2.10;80.40
46752;DHT22;32497;48.936;9.270;2023-01-30T09:51:22;2.10;80.20
46752;DHT22;32497;48.936;9.270;2023-01-30T09:56:25;2.10;80.20
46752;DHT22;32497;48.936;9.270;2023-01-30T10:01:33;2.20;80.40
46752;DHT22;32497;48.936;9.270;2023-01-30T10:06:46;2.30;80.50
46752;DHT22;32497;48.936;9.270;2023-01-30T10:12:01;2.50;79.80
46752;DHT22;32497;48.936;9.270;2023-01-30T10:17:22;2.60;79.60
46752;DHT22;32497;48.936;9.270;2023-01-30T10:22:39;2.70;80.00
46752;DHT22;32497;48.936;9.270;2023-01-30T10:27:48;2.70;79.70
46752;DHT22;32497;48.936;9.270;2023-01-30T10:32:54;2.80;79.40
46752;DHT22;32497;48.936;9.270;2023-01-30T10:38:03;2.80;79.50
46752;DHT22;32497;48.936;9.270;2023-01-30T10:43:14;3.00;78.90
46752;DHT22;32497;48.936;9.270;2023-01-30T10:48:33;3.00;78.70
46752;DHT22;32497;48.936;9.270;2023-01-30T10:53:43;3.00;78.70
46752;DHT22;32497;48.936;9.270;2023-01-30T10:58:52;3.10;78.70
46752;DHT22;32497;48.936;9.270;2023-01-30T11:03:57;3.10;79.10
46752;DHT22;32497;48.936;9.270;2023-01-30T11:09:01;3.20;79.10
46752;DHT22;32497;48.936;9.270;2023-01-30T11:14:04;3.40;79.60
46752;DHT22;32497;48.936;9.270;2023-01-30T11:19:06;3.50;81.90
46752;DHT22;32497;48.936;9.270;2023-01-30T11:24:13;3.70;81.90
46752;DHT22;32497;48.936;9.270;2023-01-30T11:29:27;3.90;81.60
46752;DHT22;32497;48.936;9.270;2023-01-30T11:34:28;4.00;80.90
46752;DHT22;32497;48.936;9.270;2023-01-30T11:39:31;4.10;80.60
46752;DHT22;32497;48.936;9.270;2023-01-30T11:44:33;4.20;80.60
46752;DHT22;32497;48.936;9.270;2023-01-30T11:49:38;4.20;80.60
46752;DHT22;32497;48.936;9.270;2023-01-30T11:54:43;4.20;80.80
46752;DHT22;32497;48.936;9.270;2023-01-30T11:59:46;4.20;80.70
46752;DHT22;32497;48.936;9.270;2023-01-30T12:04:51;4.10;80.90
46752;DHT22;32497;48.936;9.270;2023-01-30T12:09:56;4.20;81.20
46752;DHT22;32497;48.936;9.270;2023-01-30T12:15:13;4.20;81.70
46752;DHT22;32497;48.936;9.270;2023-01-30T12:20:24;4.10;84.10
46752;DHT22;32497;48.936;9.270;2023-01-30T12:25:33;4.00;85.20
46752;DHT22;32497;48.936;9.270;2023-01-30T12:30:38;3.90;85.50
46752;DHT22;32497;48.936;9.270;2023-01-30T12:35:53;3.70;85.60
46752;DHT22;32497;48.936;9.270;2023-01-30T12:41:11;3.90;84.90
46752;DHT22;32497;48.936;9.270;2023-01-30T12:46:32;3.90;84.60
46752;DHT22;32497;48.936;9.270;2023-01-30T12:51:47;3.90;84.20
46752;DHT22;32497;48.936;9.270;2023-01-30T12:56:59;3.80;84.40
46752;DHT22;32497;48.936;9.270;2023-01-30T13:02:20;4.10;83.60
46752;DHT22;32497;48.936;9.270;2023-01-30T13:07:31;4.40;82.80
46752;DHT22;32497;48.936;9.270;2023-01-30T13:12:41;4.60;81.40
46752;DHT22;32497;48.936;9.270;2023-01-30T13:17:57;4.60;80.80
46752;DHT22;32497;48.936;9.270;2023-01-30T13:23:04;4.70;80.70
46752;DHT22;32497;48.936;9.270;2023-01-30T13:28:12;4.60;80.60
46752;DHT22;32497;48.936;9.270;2023-01-30T13:33:19;4.70;80.00
46752;DHT22;32497;48.936;9.270;2023-01-30T13:38:23;4.80;79.80
46752;DHT22;32497;48.936;9.270;2023-01-30T13:43:29;4.70;79.80
46752;DHT22;32497;48.936;9.270;2023-01-30T13:48:44;4.50;80.20
46752;DHT22;32497;48.936;9.270;2023-01-30T13:53:53;4.30;80.90
46752;DHT22;32497;48.936;9.270;2023-01-30T13:59:06;4.30;81.30
46752;DHT22;32497;48.936;9.270;2023-01-30T14:04:44;4.50;80.30
46752;DHT22;32497;48.936;9.270;2023-01-30T14:09:49;5.70;76.90
46752;DHT22;32497;48.936;9.270;2023-01-30T14:15:02;5.40;76.70
46752;DHT22;32497;48.936;9.270;2023-01-30T14:20:10;5.10;77.30
46752;DHT22;32497;48.936;9.270;2023-01-30T14:25:47;4.60;79.10
46752;DHT22;32497;48.936;9.270;2023-01-30T14:30:51;4.40;80.30
46752;DHT22;32497;48.936;9.270;2023-01-30T14:41:27;4.30;80.60
46752;DHT22;32497;48.936;9.270;2023-01-30T14:46:43;4.20;80.50
46752;DHT22;32497;48.936;9.270;2023-01-30T14:51:46;4.30;80.30
46752;DHT22;32497;48.936;9.270;2023-01-30T14:56:50;4.40;80.10
46752;DHT22;32497;48.936;9.270;2023-01-30T15:01:56;4.40;80.30
46752;DHT22;32497;48.936;9.270;2023-01-30T15:06:59;4.10;80.50
46752;DHT22;32497;48.936;9.270;2023-01-30T15:12:14;3.90;81.30
46752;DHT22;32497;48.936;9.270;2023-01-30T15:17:26;3.80;82.00
46752;DHT22;32497;48.936;9.270;2023-01-30T15:22:37;3.60;82.60
46752;DHT22;32497;48.936;9.270;2023-01-30T15:27:58;3.50;82.80
46752;DHT22;32497;48.936;9.270;2023-01-30T15:33:14;3.40;83.30
46752;DHT22;32497;48.936;9.270;2023-01-30T15:38:24;3.10;84.10
46752;DHT22;32497;48.936;9.270;2023-01-30T15:49:33;3.10;84.70
46752;DHT22;32497;48.936;9.270;2023-01-30T15:54:39;3.20;84.30
46752;DHT22;32497;48.936;9.270;2023-01-30T15:59:40;3.20;84.00
46752;DHT22;32497;48.936;9.270;2023-01-30T16:04:43;3.20;84.00
46752;DHT22;32497;48.936;9.270;2023-01-30T16:09:53;3.20;84.50
46752;DHT22;32497;48.936;9.270;2023-01-30T16:14:57;3.10;84.60
46752;DHT22;32497;48.936;9.270;2023-01-30T16:20:00;3.10;84.70
46752;DHT22;32497;48.936;9.270;2023-01-30T16:25:02;3.10;84.80
46752;DHT22;32497;48.936;9.270;2023-01-30T16:30:05;2.90;85.30
46752;DHT22;32497;48.936;9.270;2023-01-30T16:35:27;2.80;85.60
46752;DHT22;32497;48.936;9.270;2023-01-30T16:40:30;2.80;85.70
46752;DHT22;32497;48.936;9.270;2023-01-30T16:51:22;3.00;85.60
46752;DHT22;32497;48.936;9.270;2023-01-30T16:56:23;3.00;85.50
46752;DHT22;32497;48.936;9.270;2023-01-30T17:01:37;3.00;85.40
46752;DHT22;32497;48.936;9.270;2023-01-30T17:06:40;3.10;85.50
46752;DHT22;32497;48.936;9.270;2023-01-30T17:11:41;2.90;85.60
46752;DHT22;32497;48.936;9.270;2023-01-30T17:16:46;2.70;86.20
46752;DHT22;32497;48.936;9.270;2023-01-30T17:21:50;2.70;86.20
46752;DHT22;32497;48.936;9.270;2023-01-30T17:26:53;2.60;86.60
46752;DHT22;32497;48.936;9.270;2023-01-30T17:31:56;2.50;86.80
46752;DHT22;32497;48.936;9.270;2023-01-30T17:36:58;2.40;87.60
46752;DHT22;32497;48.936;9.270;2023-01-30T17:41:59;2.30;87.70
46752;DHT22;32497;48.936;9.270;2023-01-30T17:47:01;2.10;87.70
46752;DHT22;32497;48.936;9.270;2023-01-30T17:52:04;2.20;88.90
46752;DHT22;32497;48.936;9.270;2023-01-30T17:57:06;2.40;88.70
46752;DHT22;32497;48.936;9.270;2023-01-30T18:02:09;2.50;87.80
46752;DHT22;32497;48.936;9.270;2023-01-30T18:07:13;2.50;87.60
46752;DHT22;32497;48.936;9.270;2023-01-30T18:12:14;2.60;87.60
46752;DHT22;32497;48.936;9.270;2023-01-30T18:17:16;2.60;87.50
46752;DHT22;32497;48.936;9.270;2023-01-30T18:22:18;2.50;87.30
46752;DHT22;32497;48.936;9.270;2023-01-30T18:27:19;2.30;88.00
46752;DHT22;32497;48.936;9.270;2023-01-30T18:32:20;2.30;88.40
46752;DHT22;32497;48.936;9.270;2023-01-30T18:37:23;2.40;88.50
46752;DHT22;32497;48.936;9.270;2023-01-30T18:42:24;2.50;88.10
46752;DHT22;32497;48.936;9.270;2023-01-30T18:47:25;2.60;88.10
46752;DHT22;32497;48.936;9.270;2023-01-30T18:52:27;2.70;87.50
46752;DHT22;32497;48.936;9.270;2023-01-30T18:57:28;2.90;87.30
46752;DHT22;32497;48.936;9.270;2023-01-30T19:02:29;2.90;87.00
46752;DHT22;32497;48.936;9.270;2023-01-30T19:07:34;3.00;87.10
46752;DHT22;32497;48.936;9.270;2023-01-30T19:12:35;3.00;86.80
46752;DHT22;32497;48.936;9.270;2023-01-30T19:17:36;3.10;86.70
46752;DHT22;32497;48.936;9.270;2023-01-30T19:22:38;3.10;86.80
46752;DHT22;32497;48.936;9.270;2023-01-30T19:27:39;3.00;87.10
46752;DHT22;32497;48.936;9.270;2023-01-30T19:32:40;3.10;87.10
46752;DHT22;32497;48.936;9.270;2023-01-30T19:37:43;3.10;86.90
46752;DHT22;32497;48.936;9.270;2023-01-30T19:42:44;3.10;86.80
46752;DHT22;32497;48.936;9.270;2023-01-30T19:47:45;3.20;86.80
46752;DHT22;32497;48.936;9.270;2023-01-30T19:52:51;3.20;86.60
46752;DHT22;32497;48.936;9.270;2023-01-30T19:57:52;3.20;86.40
46752;DHT22;32497;48.936;9.270;2023-01-30T20:02:53;3.10;86.50
46752;DHT22;32497;48.936;9.270;2023-01-30T20:07:57;3.20;86.70
46752;DHT22;32497;48.936;9.270;2023-01-30T20:12:58;3.10;86.70
46752;DHT22;32497;48.936;9.270;2023-01-30T20:17:59;3.10;86.90
46752;DHT22;32497;48.936;9.270;2023-01-30T20:23:01;3.20;86.70
46752;DHT22;32497;48.936;9.270;2023-01-30T20:28:02;3.10;86.90
46752;DHT22;32497;48.936;9.270;2023-01-30T20:33:04;3.10;86.80
46752;DHT22;32497;48.936;9.270;2023-01-30T20:38:06;3.20;86.80
46752;DHT22;32497;48.936;9.270;2023-01-30T20:43:07;3.20;87.10
46752;DHT22;32497;48.936;9.270;2023-01-30T20:48:08;3.20;86.90
46752;DHT22;32497;48.936;9.270;2023-01-30T20:53:11;3.20;86.70
46752;DHT22;32497;48.936;9.270;2023-01-30T20:58:12;3.20;86.70
46752;DHT22;32497;48.936;9.270;2023-01-30T21:03:13;3.20;86.80
46752;DHT22;32497;48.936;9.270;2023-01-30T21:08:16;3.30;86.30
46752;DHT22;32497;48.936;9.270;2023-01-30T21:13:17;3.20;86.30
46752;DHT22;32497;48.936;9.270;2023-01-30T21:18:18;3.30;86.10
46752;DHT22;32497;48.936;9.270;2023-01-30T21:23:21;3.20;86.00
46752;DHT22;32497;48.936;9.270;2023-01-30T21:28:23;3.20;86.20
46752;DHT22;32497;48.936;9.270;2023-01-30T21:33:24;3.20;86.10
46752;DHT22;32497;48.936;9.270;2023-01-30T21:38:27;3.20;86.30
46752;DHT22;32497;48.936;9.270;2023-01-30T21:43:28;3.20;86.50
46752;DHT22;32497;48.936;9.270;2023-01-30T21:48:29;3.20;86.30
46752;DHT22;32497;48.936;9.270;2023-01-30T21:53:32;3.20;86.30
46752;DHT22;32497;48.936;9.270;2023-01-30T21:58:33;3.20;86.30
46752;DHT22;32497;48.936;9.270;2023-01-30T22:03:34;3.10;86.30
46752;DHT22;32497;48.936;9.270;2023-01-30T22:08:37;3.20;86.10
46752;DHT22;32497;48.936;9.270;2023-01-30T22:13:39;3.20;86.00
46752;DHT22;32497;48.936;9.270;2023-01-30T22:18:41;3.20;85.90
46752;DHT22;32497;48.936;9.270;2023-01-30T22:23:46;3.20;86.00
46752;DHT22;32497;48.936;9.270;2023-01-30T22:28:47;3.10;86.10
46752;DHT22;32497;48.936;9.270;2023-01-30T22:33:50;3.10;86.20
46752;DHT22;32497;48.936;9.270;2023-01-30T22:38:54;3.10;85.70
46752;DHT22;32497;48.936;9.270;2023-01-30T22:43:57;3.20;85.40
46752;DHT22;32497;48.936;9.270;2023-01-30T22:48:59;3.10;85.30
46752;DHT22;32497;48.936;9.270;2023-01-30T22:54:04;3.20;85.20
46752;DHT22;32497;48.936;9.270;2023-01-30T22:59:06;3.10;85.10
46752;DHT22;32497;48.936;9.270;2023-01-30T23:04:10;3.10;85.10
46752;DHT22;32497;48.936;9.270;2023-01-30T23:09:16;3.20;84.70
46752;DHT22;32497;48.936;9.270;2023-01-30T23:14:17;3.20;84.90
46752;DHT22;32497;48.936;9.270;2023-01-30T23:19:19;3.10;85.10
46752;DHT22;32497;48.936;9.270;2023-01-30T23:24:21;3.10;85.10
46752;DHT22;32497;48.936;9.270;2023-01-30T23:29:22;3.10;85.40
46752;DHT22;32497;48.936;9.270;2023-01-30T23:34:23;3.00;85.40
46752;DHT22;32497;48.936;9.270;2023-01-30T23:39:26;3.10;85.40
46752;DHT22;32497;48.936;9.270;2023-01-30T23:44:27;3.00;85.70
46752;DHT22;32497;48.936;9.270;2023-01-30T23:49:28;3.00;85.90
46752;DHT22;32497;48.936;9.270;2023-01-30T23:54:30;2.80;85.70
46752;DHT22;32497;48.936;9.270;2023-01-30T23:59:32;2.70;86.10
